createdAt,value
2019-02-09T00:00:51.252Z,99163.72
2019-02-09T00:04:58.327Z,99176.52
2019-02-09T00:09:08.305Z,99180.05
2019-02-09T00:13:15.157Z,99173.16
2019-02-09T00:17:21.994Z,99159.55
2019-02-09T00:21:28.866Z,99155.30
2019-02-09T00:25:36.043Z,99142.53
2019-02-09T00:29:46.430Z,99142.13
2019-02-09T00:33:51.700Z,99120.61
2019-02-09T00:37:58.665Z,99114.34
2019-02-09T00:42:05.704Z,99110.70
2019-02-09T00:46:12.590Z,99096.05
2019-02-09T00:50:20.348Z,99105.23
2019-02-09T00:54:27.225Z,99110.20
2019-02-09T00:58:34.261Z,99100.05
2019-02-09T01:02:41.313Z,99092.34
2019-02-09T01:06:48.331Z,99094.92
2019-02-09T01:10:55.252Z,99101.89
2019-02-09T01:15:02.241Z,99099.56
2019-02-09T01:19:09.407Z,99101.80
2019-02-09T01:23:16.507Z,99092.08
2019-02-09T01:27:23.801Z,99088.95
2019-02-09T01:31:30.646Z,99082.78
2019-02-09T01:35:37.472Z,99091.50
2019-02-09T01:39:44.362Z,99085.73
2019-02-09T01:43:51.379Z,99082.87
2019-02-09T01:47:58.349Z,99093.70
2019-02-09T01:52:05.512Z,99090.03
2019-02-09T01:56:12.359Z,99086.05
2019-02-09T02:00:28.022Z,99090.48
2019-02-09T02:04:35.030Z,99100.37
2019-02-09T02:08:41.978Z,99100.71
2019-02-09T02:12:48.999Z,99100.59
2019-02-09T02:16:55.870Z,99073.34
2019-02-09T02:21:02.744Z,99075.30
2019-02-09T02:25:10.017Z,99065.23
2019-02-09T02:29:16.925Z,99062.63
2019-02-09T02:33:23.774Z,99049.86
2019-02-09T02:37:30.607Z,99003.95
2019-02-09T02:41:37.449Z,99016.41
2019-02-09T02:45:44.257Z,99013.27
2019-02-09T02:49:51.119Z,99013.88
2019-02-09T02:53:58.187Z,99013.09
2019-02-09T02:58:05.469Z,99017.36
2019-02-09T03:02:12.396Z,99004.52
2019-02-09T03:06:19.276Z,99012.67
2019-02-09T03:10:27.329Z,99012.05
2019-02-09T03:14:34.297Z,99007.80
2019-02-09T03:18:41.065Z,98987.91
2019-02-09T03:22:48.174Z,98960.66
2019-02-09T03:26:55.160Z,98945.67
2019-02-09T03:31:02.075Z,98967.75
2019-02-09T03:35:10.651Z,98969.98
2019-02-09T03:39:17.506Z,98980.01
2019-02-09T03:43:24.464Z,98992.23
2019-02-09T03:47:31.345Z,98998.64
2019-02-09T03:51:38.179Z,99016.14
2019-02-09T03:55:45.039Z,99040.75
2019-02-09T03:59:52.089Z,99026.59
2019-02-09T04:03:58.938Z,99041.35
2019-02-09T04:08:05.949Z,99040.13
2019-02-09T04:12:12.787Z,99037.20
2019-02-09T04:16:19.597Z,99044.08
2019-02-09T04:20:27.222Z,99044.28
2019-02-09T04:24:34.057Z,99037.61
2019-02-09T04:28:41.282Z,99013.50
2019-02-09T04:32:49.477Z,99016.77
2019-02-09T04:36:56.397Z,99024.45
2019-02-09T04:41:03.254Z,99034.55
2019-02-09T04:45:12.165Z,99051.28
2019-02-09T04:49:19.024Z,99056.92
2019-02-09T04:53:26.052Z,99060.78
2019-02-09T04:57:32.923Z,99059.55
2019-02-09T05:01:39.906Z,99059.24
2019-02-09T05:05:46.790Z,99060.66
2019-02-09T05:09:53.779Z,99064.17
2019-02-09T05:14:00.770Z,99062.70
2019-02-09T05:18:07.772Z,99067.47
2019-02-09T05:22:14.647Z,99072.05
2019-02-09T05:26:21.452Z,99072.15
2019-02-09T05:30:30.473Z,99092.83
2019-02-09T05:34:37.288Z,99087.15
2019-02-09T05:38:44.488Z,99097.30
2019-02-09T05:42:51.386Z,99109.86
2019-02-09T05:46:58.187Z,99126.98
2019-02-09T05:51:05.040Z,99128.91
2019-02-09T05:55:12.229Z,99129.55
2019-02-09T05:59:21.919Z,99136.73
2019-02-09T06:03:28.801Z,99142.94
2019-02-09T06:07:35.722Z,99147.09
2019-02-09T06:11:42.574Z,99155.00
2019-02-09T06:15:49.403Z,99149.23
2019-02-09T06:19:56.249Z,99158.45
2019-02-09T06:24:03.108Z,99173.84
2019-02-09T06:28:09.929Z,99178.30
2019-02-09T06:32:16.746Z,99187.92
2019-02-09T06:36:23.674Z,99192.24
2019-02-09T06:40:32.570Z,99197.16
2019-02-09T06:44:39.424Z,99202.05
2019-02-09T06:48:46.517Z,99212.66
2019-02-09T06:52:54.530Z,99216.72
2019-02-09T06:57:01.582Z,99219.65
2019-02-09T07:01:09.025Z,99228.16
2019-02-09T07:05:18.823Z,99219.47
2019-02-09T07:09:26.025Z,99220.48
2019-02-09T07:13:32.900Z,99227.21
2019-02-09T07:17:39.883Z,99216.77
2019-02-09T07:21:46.764Z,99236.67
2019-02-09T07:25:53.883Z,99234.77
2019-02-09T07:30:00.897Z,99239.02
2019-02-09T07:34:10.253Z,99247.46
2019-02-09T07:38:17.175Z,99253.27
2019-02-09T07:42:24.130Z,99238.98
2019-02-09T07:46:31.125Z,99260.28
2019-02-09T07:50:38.077Z,99259.38
2019-02-09T07:54:45.215Z,99269.55
2019-02-09T07:58:52.361Z,99271.17
2019-02-09T08:03:02.698Z,99280.83
2019-02-09T08:07:09.623Z,99290.88
2019-02-09T08:11:17.294Z,99286.83
2019-02-09T08:15:26.777Z,99288.05
2019-02-09T08:19:33.800Z,99290.88
2019-02-09T08:23:40.760Z,99298.62
2019-02-09T08:27:48.000Z,99311.56
2019-02-09T08:31:54.845Z,99312.20
2019-02-09T08:36:01.729Z,99324.54
2019-02-09T08:40:10.565Z,99337.95
2019-02-09T08:44:24.125Z,99355.31
2019-02-09T08:48:36.841Z,99354.68
2019-02-09T08:52:47.535Z,99360.70
2019-02-09T08:56:54.983Z,99354.11
2019-02-09T09:01:02.166Z,99363.11
2019-02-09T09:05:11.650Z,99360.08
2019-02-09T09:09:18.714Z,99356.86
2019-02-09T09:13:25.763Z,99373.38
2019-02-09T09:17:32.717Z,99364.26
2019-02-09T09:21:39.613Z,99362.09
2019-02-09T09:25:46.504Z,99363.48
2019-02-09T09:29:53.695Z,99362.80
2019-02-09T09:34:06.654Z,99369.84
2019-02-09T09:38:13.511Z,99379.00
2019-02-09T09:42:20.396Z,99397.28
2019-02-09T09:46:27.477Z,99402.02
2019-02-09T09:50:34.792Z,99412.94
2019-02-09T09:54:41.759Z,99392.22
2019-02-09T09:58:50.262Z,99406.08
2019-02-09T10:02:58.209Z,99404.88
2019-02-09T10:07:05.247Z,99396.91
2019-02-09T10:11:12.057Z,99395.16
2019-02-09T10:15:22.448Z,99418.34
2019-02-09T10:19:29.260Z,99425.30
2019-02-09T10:23:36.117Z,99425.34
2019-02-09T10:27:43.092Z,99411.19
2019-02-09T10:31:49.937Z,99422.16
2019-02-09T10:35:58.906Z,99415.31
2019-02-09T10:40:07.519Z,99416.18
2019-02-09T10:44:14.464Z,99417.03
2019-02-09T10:48:22.935Z,99421.91
2019-02-09T10:52:33.337Z,99421.14
2019-02-09T10:56:40.233Z,99426.88
2019-02-09T11:01:01.607Z,99425.38
2019-02-09T11:05:11.352Z,99433.73
2019-02-09T11:09:25.482Z,99417.48
2019-02-09T11:13:32.744Z,99409.09
2019-02-09T11:17:39.631Z,99414.73
2019-02-09T11:21:46.788Z,99413.87
2019-02-09T11:25:53.632Z,99413.43
2019-02-09T11:30:00.695Z,99413.59
2019-02-09T11:34:07.991Z,99425.16
2019-02-09T11:38:14.868Z,99394.53
2019-02-09T11:42:23.099Z,99423.66
2019-02-09T11:46:30.295Z,99430.45
2019-02-09T11:50:38.650Z,99424.63
2019-02-09T11:54:59.927Z,99422.68
2019-02-09T11:59:07.326Z,99433.03
2019-02-09T12:03:16.101Z,99428.77
2019-02-09T12:07:23.983Z,99427.70
2019-02-09T12:11:31.287Z,99424.15
2019-02-09T12:15:40.240Z,99434.47
2019-02-09T12:19:47.129Z,99425.53
2019-02-09T12:23:54.232Z,99415.76
2019-02-09T12:28:01.316Z,99415.76
2019-02-09T12:32:08.492Z,99426.08
2019-02-09T12:36:15.473Z,99415.80
2019-02-09T12:40:28.548Z,99419.79
2019-02-09T12:44:41.147Z,99416.23
2019-02-09T12:48:48.595Z,99425.41
2019-02-09T12:52:56.130Z,99407.25
2019-02-09T12:57:03.064Z,99403.16
2019-02-09T13:01:10.012Z,99428.15
2019-02-09T13:05:17.165Z,99408.61
2019-02-09T13:09:24.042Z,99383.91
2019-02-09T13:13:36.094Z,99388.64
2019-02-09T13:17:43.044Z,99381.63
2019-02-09T13:21:50.009Z,99379.88
2019-02-09T13:25:57.048Z,99386.28
2019-02-09T13:30:05.037Z,99379.32
2019-02-09T13:34:12.439Z,99382.60
2019-02-09T13:38:19.506Z,99362.91
2019-02-09T13:42:48.927Z,99397.92
2019-02-09T13:46:58.689Z,99380.31
2019-02-09T13:51:06.416Z,99378.11
2019-02-09T13:55:15.705Z,99376.17
2019-02-09T13:59:23.676Z,99369.53
2019-02-09T14:03:37.599Z,99384.50
2019-02-09T14:07:45.148Z,99392.55
2019-02-09T14:11:53.354Z,99388.75
2019-02-09T14:16:08.200Z,99395.83
2019-02-09T14:20:11.303Z,99403.14
2019-02-09T14:24:18.187Z,99401.50
2019-02-09T14:28:27.130Z,99397.84
2019-02-09T14:32:34.134Z,99399.90
2019-02-09T14:36:41.339Z,99409.84
2019-02-09T14:40:50.994Z,99404.88
2019-02-09T14:44:59.913Z,99410.12
2019-02-09T14:49:06.914Z,99413.92
2019-02-09T14:53:16.353Z,99409.94
2019-02-09T14:57:23.631Z,99418.83
2019-02-09T15:01:31.771Z,99418.66
2019-02-09T15:05:40.037Z,99423.50
2019-02-09T15:09:47.401Z,99436.72
2019-02-09T15:13:58.160Z,99438.27
2019-02-09T15:18:05.734Z,99419.92
2019-02-09T15:22:13.694Z,99437.28
2019-02-09T15:26:20.889Z,99425.73
2019-02-09T15:30:29.718Z,99448.74
2019-02-09T15:34:36.632Z,99432.47
2019-02-09T15:38:45.444Z,99424.97
2019-02-09T15:42:52.531Z,99451.56
2019-02-09T15:47:00.070Z,99455.72
2019-02-09T15:51:07.135Z,99461.52
2019-02-09T15:55:21.283Z,99453.05
2019-02-09T15:59:29.973Z,99463.21
2019-02-09T16:03:36.963Z,99469.71
2019-02-09T16:07:44.121Z,99484.52
2019-02-09T16:11:51.172Z,99469.88
2019-02-09T16:15:58.138Z,99458.09
2019-02-09T16:20:06.335Z,99481.98
2019-02-09T16:24:13.316Z,99485.94
2019-02-09T16:28:20.169Z,99490.09
2019-02-09T16:32:27.058Z,99480.16
2019-02-09T16:36:33.946Z,99492.34
2019-02-09T16:40:40.917Z,99482.48
2019-02-09T16:44:48.271Z,99510.23
2019-02-09T16:48:55.371Z,99505.14
2019-02-09T16:53:03.692Z,99497.13
2019-02-09T16:57:10.790Z,99487.77
2019-02-09T17:01:18.208Z,99507.29
2019-02-09T17:05:28.478Z,99514.41
2019-02-09T17:09:35.392Z,99532.91
2019-02-09T17:13:42.535Z,99547.65
2019-02-09T17:17:49.390Z,99544.47
2019-02-09T17:21:56.337Z,99553.92
2019-02-09T17:26:03.216Z,99564.28
2019-02-09T17:30:18.927Z,99563.59
2019-02-09T17:34:25.886Z,99570.50
2019-02-09T17:38:34.514Z,99575.99
2019-02-09T17:42:41.823Z,99576.17
2019-02-09T17:46:49.194Z,99588.17
2019-02-09T17:50:56.108Z,99581.05
2019-02-09T17:55:02.973Z,99582.86
2019-02-09T17:59:10.068Z,99578.78
2019-02-09T18:03:17.966Z,99591.58
2019-02-09T18:07:24.840Z,99596.13
2019-02-09T18:11:33.271Z,99596.48
2019-02-09T18:15:40.281Z,99600.51
2019-02-09T18:19:48.403Z,99606.39
2019-02-09T18:23:57.644Z,99616.00
2019-02-09T18:28:07.716Z,99613.44
2019-02-09T18:32:14.996Z,99610.92
2019-02-09T18:36:22.308Z,99621.44
2019-02-09T18:40:30.145Z,99621.23
2019-02-09T18:44:37.045Z,99617.17
2019-02-09T18:48:43.897Z,99614.09
2019-02-09T18:52:50.830Z,99611.30
2019-02-09T18:56:58.152Z,99607.55
2019-02-09T19:01:17.960Z,99604.67
2019-02-09T19:05:25.240Z,99606.61
2019-02-09T19:09:34.113Z,99601.61
2019-02-09T19:13:50.074Z,99598.44
2019-02-09T19:17:57.632Z,99616.62
2019-02-09T19:22:05.125Z,99615.45
2019-02-09T19:26:12.862Z,99611.11
2019-02-09T19:30:25.820Z,99603.48
2019-02-09T19:34:32.951Z,99608.93
2019-02-09T19:38:41.040Z,99605.02
2019-02-09T19:42:48.858Z,99617.05
2019-02-09T19:46:55.716Z,99607.28
2019-02-09T19:51:02.761Z,99615.35
2019-02-09T19:55:14.472Z,99619.92
2019-02-09T19:59:21.366Z,99623.91
2019-02-09T20:03:28.431Z,99624.55
2019-02-09T20:07:35.453Z,99626.70
2019-02-09T20:11:42.400Z,99627.94
2019-02-09T20:15:49.311Z,99625.02
2019-02-09T20:19:56.404Z,99623.67
2019-02-09T20:24:03.238Z,99632.03
2019-02-09T20:28:10.109Z,99626.14
2019-02-09T20:32:17.069Z,99637.89
2019-02-09T20:36:24.090Z,99626.80
2019-02-09T20:40:50.691Z,99630.69
2019-02-09T20:44:58.980Z,99626.09
2019-02-09T20:49:06.229Z,99625.31
2019-02-09T20:53:15.368Z,99623.19
2019-02-09T20:57:22.489Z,99626.13
2019-02-09T21:01:29.735Z,99621.19
2019-02-09T21:05:37.069Z,99612.48
2019-02-09T21:09:44.103Z,99612.22
2019-02-09T21:13:50.998Z,99606.50
2019-02-09T21:17:58.091Z,99601.86
2019-02-09T21:22:08.459Z,99600.84
2019-02-09T21:26:15.463Z,99593.58
2019-02-09T21:30:22.496Z,99598.73
2019-02-09T21:34:34.880Z,99589.51
2019-02-09T21:38:41.876Z,99594.27
2019-02-09T21:42:49.165Z,99599.50
2019-02-09T21:46:56.094Z,99606.97
2019-02-09T21:51:03.364Z,99592.48
2019-02-09T21:55:12.382Z,99589.42
2019-02-09T21:59:19.669Z,99594.30
2019-02-09T22:03:26.683Z,99585.06
2019-02-09T22:07:33.571Z,99590.54
2019-02-09T22:11:40.569Z,99584.80
2019-02-09T22:15:47.600Z,99587.70
2019-02-09T22:19:55.271Z,99576.39
2019-02-09T22:24:02.337Z,99571.83
2019-02-09T22:28:09.258Z,99568.82
2019-02-09T22:32:16.188Z,99570.20
2019-02-09T22:36:23.609Z,99568.73
2019-02-09T22:40:33.321Z,99566.97
2019-02-09T22:44:40.307Z,99570.22
2019-02-09T22:48:47.143Z,99552.47
2019-02-09T22:52:53.945Z,99549.13
2019-02-09T22:57:00.917Z,99552.37
2019-02-09T23:01:45.825Z,99546.25
2019-02-09T23:06:54.056Z,99540.77
2019-02-09T23:11:01.137Z,99548.72
2019-02-09T23:15:09.646Z,99548.98
2019-02-09T23:19:16.662Z,99543.20
2019-02-09T23:23:23.552Z,99531.50
2019-02-09T23:27:30.641Z,99522.34
2019-02-09T23:31:37.564Z,99517.53
2019-02-09T23:35:44.483Z,99514.27
2019-02-09T23:39:51.437Z,99525.06
2019-02-09T23:43:58.225Z,99515.84
2019-02-09T23:48:05.071Z,99509.05
2019-02-09T23:52:12.405Z,99493.81
2019-02-09T23:56:19.320Z,99491.18
